Conroe, TX

11:33 AM CST on December 19, 2014 (GMT -0600)
Hooks Memorial | Change Station
CLOSE
Current Station
Airport
Location: Houston Hooks,
Elevation: 151 ft
Nearby Weather Stations

Elev 151 ft 30.07 °N, 95.56 °W | Updated 11 hours ago

Rain
Rain
50 °F
Feels Like 50 °F
N
9
Wind Variable Wind from NNE
Gusts 13 mph

Today
High -- | Low -- °F
--% Chance of Precip.
Yesterday
High -- | Low -- °F
Precip. -- in
7:13 AM 5:24 PM
Waning Crescent, 7% visible
Pressure 30.04 in
Visibility 7.0 miles
Clouds Mostly Cloudy 700 ft
Mostly Cloudy 3200 ft
Overcast 5500 ft
Dew Point 50 °F
Humidity 100%
Rainfall 0.00 in
Snow Depth Not available.
UV 0 out of 12
Pollen .80 out of 12
Air Quality Not available.
Flu Activity Not available.
SPECI KDWH 190626Z 03006KT 7SM VCTS -RA BKN007 BKN032 OVC055 15/14 A3004 RMK AO2 LTG DSNT ALQDS TSE0556B0558E03B06E11B14E23B26RAB0556 P0006

More Conditions Fewer Conditions

Pressure 30.04 in
Visibility 7.0 miles
Clouds Mostly Cloudy 700 ft
Mostly Cloudy 3200 ft
Overcast 5500 ft
Dew Point 50 °F
Humidity 100%
Rainfall 0.00 in
Snow Depth Not available.
UV 0 out of 12
Pollen .80 out of 12
Air Quality Not available.
Flu Activity Not available.
SPECI KDWH 190626Z 03006KT 7SM VCTS -RA BKN007 BKN032 OVC055 15/14 A3004 RMK AO2 LTG DSNT ALQDS TSE0556B0558E03B06E11B14E23B26RAB0556 P0006

More Conditions Fewer Conditions

10-Day Weather Forecast

Almanac

Astronomy

Dec. 19, 2014 Rise Set
Actual Time
Civil Twilight
Nautical Twilight
Astronomical Twilight
Moon
Length of Visible Light
Length of Day
Tomorrow will be .
, % of the Moon is Illuminated

Today's Extremes

State Highs State Lows

Community

WunderPhotos

Upload Photos

1,779,008 photos uploaded!

WunderBlogs® & News

Nearby

Air Quality

  Air Quality AQ Index Pollutant
Not available.

Snow Depth

Station Depth Elevation

Earthquake Activity

City Distance Mag. Time & Date
Minimum magnitude displayed is 2.5.

Coastal Water Temperatures

Place Temperature

Nearby Weather Stations